Main page
METAR-TAF:

METAR-TAF

Airports :

Mécheria, Algeria

Mécheria Airport

latitude: 34-56N, longitude: 000-26W, elevation: 1149 m

Current weather observation

The report was made 47 minutes ago, at 04:00 UTC
Wind 16 kt from the North/Northwest
Temperature 10°C
Humidity 93%
Pressure 1017 hPa
Visibility: 8000 m
Scattered clouds at a height of 1000 ft
Broken clouds at a height of 2600 ft

METAR: DAAY 270400Z 34016KT 8000 SCT010 BKN026 10/09 Q1017

Time: 05:47 (04:47 UTC)

Forecast

The report was made 5 hours and 47 minutes ago, at 23:00 UTC
Forecast valid from 27 at 00 UTC to 27 at 09 UTC
Wind 16 kt from the North/Northwest
Visibility: 7000 m
Scattered clouds at a height of 1000 ft
Broken clouds at a height of 2300 ft
Probability 40% :
Temporary
from 27 at 01 UTC to 27 at 05 UTC
Visibility: 7000 m
rain
Becoming
from 27 at 06 UTC to 27 at 09 UTC
Visibility 10 km or more
Scattered clouds at a height of 2000 ft

TAF: DAAY 262300Z 2700/2709 34016KT 7000 SCT010 BKN023 PROB40 TEMPO 2701/2705 7000 RA BECMG 2706/2709 9999 SCT020

Weather observations and forecasts of more than 4000 airports (METAR and TAF reports).

The available stations are represented by yellow and red dots on the map.

Hover mouse over dot to see the name of the station.

Then click to see weather observations and forecasts.

To change the map : click on the green buttons with a black cross to zoom in, on the green button with a dash to zoom out, or on the green arrows for adjacent maps.


METAR-TAF: